sensor_id;sensor_type;location;lat;lon;timestamp;P1;durP1;ratioP1;P2;durP2;ratioP2
14013;SDS011;49110;52.584;13.408;2023-06-19T00:00:04;8.07;;;7.37;;
14013;SDS011;49110;52.584;13.408;2023-06-19T00:01:12;8.53;;;7.63;;
14013;SDS011;49110;52.584;13.408;2023-06-19T00:02:13;7.30;;;6.70;;
14013;SDS011;49110;52.584;13.408;2023-06-19T00:03:13;7.90;;;7.20;;
14013;SDS011;49110;52.584;13.408;2023-06-19T00:04:14;8.17;;;7.47;;
14013;SDS011;49110;52.584;13.408;2023-06-19T00:05:14;8.07;;;7.27;;
14013;SDS011;49110;52.584;13.408;2023-06-19T00:06:15;7.87;;;7.17;;
14013;SDS011;49110;52.584;13.408;2023-06-19T00:07:15;9.60;;;7.63;;
14013;SDS011;49110;52.584;13.408;2023-06-19T00:08:16;8.13;;;7.33;;
14013;SDS011;49110;52.584;13.408;2023-06-19T00:09:16;8.93;;;8.00;;
14013;SDS011;49110;52.584;13.408;2023-06-19T00:10:17;8.27;;;7.23;;
14013;SDS011;49110;52.584;13.408;2023-06-19T00:11:18;8.17;;;7.47;;
14013;SDS011;49110;52.584;13.408;2023-06-19T00:12:18;7.97;;;7.27;;
14013;SDS011;49110;52.584;13.408;2023-06-19T00:13:19;8.40;;;7.47;;
14013;SDS011;49110;52.584;13.408;2023-06-19T00:14:19;8.70;;;7.73;;
14013;SDS011;49110;52.584;13.408;2023-06-19T00:15:20;9.10;;;8.23;;
14013;SDS011;49110;52.584;13.408;2023-06-19T00:16:20;8.50;;;7.63;;
14013;SDS011;49110;52.584;13.408;2023-06-19T00:17:21;8.30;;;7.50;;
14013;SDS011;49110;52.584;13.408;2023-06-19T00:18:22;8.17;;;7.47;;
14013;SDS011;49110;52.584;13.408;2023-06-19T00:19:22;8.77;;;7.93;;
14013;SDS011;49110;52.584;13.408;2023-06-19T00:20:23;10.03;;;8.53;;
14013;SDS011;49110;52.584;13.408;2023-06-19T00:21:25;8.47;;;7.60;;
14013;SDS011;49110;52.584;13.408;2023-06-19T00:22:25;8.20;;;7.50;;
14013;SDS011;49110;52.584;13.408;2023-06-19T00:23:26;9.47;;;8.40;;
14013;SDS011;49110;52.584;13.408;2023-06-19T00:24:26;8.57;;;7.77;;
14013;SDS011;49110;52.584;13.408;2023-06-19T00:25:27;8.73;;;7.83;;
14013;SDS011;49110;52.584;13.408;2023-06-19T00:26:27;8.60;;;7.90;;
14013;SDS011;49110;52.584;13.408;2023-06-19T00:27:28;8.23;;;7.53;;
14013;SDS011;49110;52.584;13.408;2023-06-19T00:28:28;8.37;;;7.57;;
14013;SDS011;49110;52.584;13.408;2023-06-19T00:29:29;7.97;;;7.37;;
14013;SDS011;49110;52.584;13.408;2023-06-19T00:30:30;8.97;;;8.07;;
14013;SDS011;49110;52.584;13.408;2023-06-19T00:31:32;8.93;;;8.03;;
14013;SDS011;49110;52.584;13.408;2023-06-19T00:32:33;8.50;;;7.70;;
14013;SDS011;49110;52.584;13.408;2023-06-19T00:33:41;8.67;;;7.90;;
14013;SDS011;49110;52.584;13.408;2023-06-19T00:34:41;8.23;;;7.53;;
14013;SDS011;49110;52.584;13.408;2023-06-19T00:35:43;8.80;;;8.00;;
14013;SDS011;49110;52.584;13.408;2023-06-19T00:36:43;8.43;;;7.63;;
14013;SDS011;49110;52.584;13.408;2023-06-19T00:37:44;8.37;;;7.67;;
14013;SDS011;49110;52.584;13.408;2023-06-19T00:38:44;8.80;;;7.80;;
14013;SDS011;49110;52.584;13.408;2023-06-19T00:39:45;9.00;;;8.20;;
14013;SDS011;49110;52.584;13.408;2023-06-19T00:40:45;9.00;;;8.10;;
14013;SDS011;49110;52.584;13.408;2023-06-19T00:41:46;8.30;;;7.53;;
14013;SDS011;49110;52.584;13.408;2023-06-19T00:42:48;8.97;;;8.07;;
14013;SDS011;49110;52.584;13.408;2023-06-19T00:43:48;8.63;;;7.83;;
14013;SDS011;49110;52.584;13.408;2023-06-19T00:44:49;8.60;;;7.67;;
14013;SDS011;49110;52.584;13.408;2023-06-19T00:45:49;9.03;;;8.13;;
14013;SDS011;49110;52.584;13.408;2023-06-19T00:46:59;8.73;;;7.93;;
14013;SDS011;49110;52.584;13.408;2023-06-19T00:48:01;8.73;;;7.93;;
14013;SDS011;49110;52.584;13.408;2023-06-19T00:49:03;9.13;;;8.17;;
14013;SDS011;49110;52.584;13.408;2023-06-19T00:50:04;8.93;;;8.13;;
14013;SDS011;49110;52.584;13.408;2023-06-19T00:51:05;8.87;;;8.07;;
14013;SDS011;49110;52.584;13.408;2023-06-19T00:52:05;8.77;;;8.03;;
14013;SDS011;49110;52.584;13.408;2023-06-19T00:53:06;8.80;;;7.93;;
14013;SDS011;49110;52.584;13.408;2023-06-19T00:54:08;8.17;;;7.47;;
14013;SDS011;49110;52.584;13.408;2023-06-19T00:55:09;8.50;;;7.70;;
14013;SDS011;49110;52.584;13.408;2023-06-19T00:56:10;8.67;;;7.87;;
14013;SDS011;49110;52.584;13.408;2023-06-19T00:57:11;9.70;;;8.43;;
14013;SDS011;49110;52.584;13.408;2023-06-19T00:58:11;8.87;;;7.97;;
14013;SDS011;49110;52.584;13.408;2023-06-19T00:59:14;9.10;;;8.30;;
14013;SDS011;49110;52.584;13.408;2023-06-19T01:00:16;9.27;;;8.47;;
14013;SDS011;49110;52.584;13.408;2023-06-19T01:01:17;7.73;;;7.13;;
14013;SDS011;49110;52.584;13.408;2023-06-19T01:02:21;8.93;;;8.13;;
14013;SDS011;49110;52.584;13.408;2023-06-19T01:03:23;10.63;;;8.20;;
14013;SDS011;49110;52.584;13.408;2023-06-19T01:04:26;8.97;;;8.17;;
14013;SDS011;49110;52.584;13.408;2023-06-19T01:05:26;8.40;;;7.60;;
14013;SDS011;49110;52.584;13.408;2023-06-19T01:06:27;9.77;;;8.40;;
14013;SDS011;49110;52.584;13.408;2023-06-19T01:09:01;9.10;;;8.20;;
14013;SDS011;49110;52.584;13.408;2023-06-19T01:10:04;8.80;;;8.10;;
14013;SDS011;49110;52.584;13.408;2023-06-19T01:11:09;8.60;;;7.90;;
14013;SDS011;49110;52.584;13.408;2023-06-19T01:12:14;8.60;;;7.90;;
14013;SDS011;49110;52.584;13.408;2023-06-19T01:13:20;8.90;;;8.00;;
14013;SDS011;49110;52.584;13.408;2023-06-19T01:14:25;8.93;;;8.20;;
14013;SDS011;49110;52.584;13.408;2023-06-19T01:15:28;8.17;;;7.57;;
14013;SDS011;49110;52.584;13.408;2023-06-19T01:16:29;8.37;;;7.60;;
14013;SDS011;49110;52.584;13.408;2023-06-19T01:17:30;10.33;;;9.13;;
14013;SDS011;49110;52.584;13.408;2023-06-19T01:18:31;9.27;;;8.47;;
14013;SDS011;49110;52.584;13.408;2023-06-19T01:19:32;10.73;;;8.17;;
14013;SDS011;49110;52.584;13.408;2023-06-19T01:20:33;9.13;;;8.23;;
14013;SDS011;49110;52.584;13.408;2023-06-19T01:21:34;8.67;;;7.93;;
14013;SDS011;49110;52.584;13.408;2023-06-19T01:22:34;8.93;;;8.23;;
14013;SDS011;49110;52.584;13.408;2023-06-19T01:23:35;9.03;;;8.23;;
14013;SDS011;49110;52.584;13.408;2023-06-19T01:24:35;8.70;;;7.87;;
14013;SDS011;49110;52.584;13.408;2023-06-19T01:25:36;8.40;;;7.70;;
14013;SDS011;49110;52.584;13.408;2023-06-19T01:26:36;9.57;;;8.70;;
14013;SDS011;49110;52.584;13.408;2023-06-19T01:27:37;8.43;;;7.70;;
14013;SDS011;49110;52.584;13.408;2023-06-19T01:28:41;9.17;;;8.30;;
14013;SDS011;49110;52.584;13.408;2023-06-19T01:29:44;8.90;;;7.93;;
14013;SDS011;49110;52.584;13.408;2023-06-19T01:30:44;9.33;;;8.53;;
14013;SDS011;49110;52.584;13.408;2023-06-19T01:31:51;9.13;;;8.20;;
14013;SDS011;49110;52.584;13.408;2023-06-19T01:33:00;8.87;;;8.17;;
14013;SDS011;49110;52.584;13.408;2023-06-19T01:34:26;8.93;;;8.07;;
14013;SDS011;49110;52.584;13.408;2023-06-19T01:35:29;9.40;;;8.43;;
14013;SDS011;49110;52.584;13.408;2023-06-19T01:36:32;9.10;;;8.30;;
14013;SDS011;49110;52.584;13.408;2023-06-19T01:37:34;9.20;;;8.40;;
14013;SDS011;49110;52.584;13.408;2023-06-19T01:38:34;8.70;;;8.00;;
14013;SDS011;49110;52.584;13.408;2023-06-19T01:39:37;8.80;;;8.10;;
14013;SDS011;49110;52.584;13.408;2023-06-19T01:40:40;8.60;;;7.90;;
14013;SDS011;49110;52.584;13.408;2023-06-19T01:41:41;9.10;;;8.23;;
14013;SDS011;49110;52.584;13.408;2023-06-19T01:42:42;8.97;;;8.07;;
14013;SDS011;49110;52.584;13.408;2023-06-19T01:43:44;9.03;;;8.27;;
14013;SDS011;49110;52.584;13.408;2023-06-19T01:44:49;9.50;;;8.37;;
14013;SDS011;49110;52.584;13.408;2023-06-19T01:45:50;9.53;;;7.90;;
14013;SDS011;49110;52.584;13.408;2023-06-19T01:46:51;9.13;;;8.43;;
14013;SDS011;49110;52.584;13.408;2023-06-19T01:47:52;9.27;;;8.40;;
14013;SDS011;49110;52.584;13.408;2023-06-19T01:48:53;8.73;;;8.03;;
14013;SDS011;49110;52.584;13.408;2023-06-19T01:49:54;9.13;;;8.23;;
14013;SDS011;49110;52.584;13.408;2023-06-19T01:50:54;9.50;;;8.70;;
14013;SDS011;49110;52.584;13.408;2023-06-19T01:51:55;9.73;;;8.93;;
14013;SDS011;49110;52.584;13.408;2023-06-19T01:52:57;9.53;;;8.77;;
14013;SDS011;49110;52.584;13.408;2023-06-19T01:53:57;8.97;;;8.27;;
14013;SDS011;49110;52.584;13.408;2023-06-19T01:54:58;9.30;;;8.47;;
14013;SDS011;49110;52.584;13.408;2023-06-19T01:55:58;9.53;;;8.73;;
14013;SDS011;49110;52.584;13.408;2023-06-19T01:56:59;9.30;;;8.50;;
14013;SDS011;49110;52.584;13.408;2023-06-19T01:58:00;9.30;;;8.60;;
14013;SDS011;49110;52.584;13.408;2023-06-19T01:59:00;11.57;;;8.40;;
14013;SDS011;49110;52.584;13.408;2023-06-19T02:00:01;9.27;;;8.47;;
14013;SDS011;49110;52.584;13.408;2023-06-19T02:01:01;9.63;;;8.73;;
14013;SDS011;49110;52.584;13.408;2023-06-19T02:02:02;9.23;;;8.33;;
14013;SDS011;49110;52.584;13.408;2023-06-19T02:03:04;8.97;;;8.17;;
14013;SDS011;49110;52.584;13.408;2023-06-19T02:04:04;8.60;;;7.90;;
14013;SDS011;49110;52.584;13.408;2023-06-19T02:05:05;8.70;;;8.00;;
14013;SDS011;49110;52.584;13.408;2023-06-19T02:06:05;9.37;;;8.47;;
14013;SDS011;49110;52.584;13.408;2023-06-19T02:07:07;9.67;;;8.80;;
14013;SDS011;49110;52.584;13.408;2023-06-19T02:08:07;9.50;;;8.60;;
14013;SDS011;49110;52.584;13.408;2023-06-19T02:09:08;9.37;;;8.67;;
14013;SDS011;49110;52.584;13.408;2023-06-19T02:10:08;9.73;;;8.87;;
14013;SDS011;49110;52.584;13.408;2023-06-19T02:11:09;8.70;;;8.00;;
14013;SDS011;49110;52.584;13.408;2023-06-19T02:12:10;9.03;;;8.13;;
14013;SDS011;49110;52.584;13.408;2023-06-19T02:13:10;9.70;;;8.80;;
14013;SDS011;49110;52.584;13.408;2023-06-19T02:14:11;8.70;;;8.00;;
14013;SDS011;49110;52.584;13.408;2023-06-19T02:15:11;9.23;;;8.47;;
14013;SDS011;49110;52.584;13.408;2023-06-19T02:16:12;9.50;;;8.67;;
14013;SDS011;49110;52.584;13.408;2023-06-19T02:17:12;9.93;;;9.17;;
14013;SDS011;49110;52.584;13.408;2023-06-19T02:18:12;8.97;;;8.27;;
14013;SDS011;49110;52.584;13.408;2023-06-19T02:19:13;9.50;;;8.63;;
14013;SDS011;49110;52.584;13.408;2023-06-19T02:20:13;9.87;;;8.67;;
14013;SDS011;49110;52.584;13.408;2023-06-19T02:21:14;9.90;;;8.77;;
14013;SDS011;49110;52.584;13.408;2023-06-19T02:22:14;9.63;;;8.63;;
14013;SDS011;49110;52.584;13.408;2023-06-19T02:23:16;10.17;;;9.27;;
14013;SDS011;49110;52.584;13.408;2023-06-19T02:24:17;9.73;;;8.80;;
14013;SDS011;49110;52.584;13.408;2023-06-19T02:25:17;10.47;;;9.57;;
14013;SDS011;49110;52.584;13.408;2023-06-19T02:26:18;10.27;;;9.37;;
14013;SDS011;49110;52.584;13.408;2023-06-19T02:27:19;10.30;;;9.40;;
14013;SDS011;49110;52.584;13.408;2023-06-19T02:28:19;10.07;;;9.07;;
14013;SDS011;49110;52.584;13.408;2023-06-19T02:29:20;10.03;;;9.00;;
14013;SDS011;49110;52.584;13.408;2023-06-19T02:30:20;9.20;;;8.50;;
14013;SDS011;49110;52.584;13.408;2023-06-19T02:31:23;9.37;;;8.60;;
14013;SDS011;49110;52.584;13.408;2023-06-19T02:32:24;10.27;;;9.27;;
14013;SDS011;49110;52.584;13.408;2023-06-19T02:33:24;9.77;;;8.90;;
14013;SDS011;49110;52.584;13.408;2023-06-19T02:34:25;9.83;;;9.03;;
14013;SDS011;49110;52.584;13.408;2023-06-19T02:35:26;10.17;;;8.90;;
14013;SDS011;49110;52.584;13.408;2023-06-19T02:36:26;10.37;;;9.37;;
14013;SDS011;49110;52.584;13.408;2023-06-19T02:37:27;9.67;;;8.90;;
14013;SDS011;49110;52.584;13.408;2023-06-19T02:38:29;9.40;;;8.60;;
14013;SDS011;49110;52.584;13.408;2023-06-19T02:39:30;9.43;;;8.63;;
14013;SDS011;49110;52.584;13.408;2023-06-19T02:40:30;9.70;;;8.70;;
14013;SDS011;49110;52.584;13.408;2023-06-19T02:41:31;10.33;;;9.53;;
14013;SDS011;49110;52.584;13.408;2023-06-19T02:42:31;10.10;;;9.30;;
14013;SDS011;49110;52.584;13.408;2023-06-19T02:43:32;10.30;;;9.33;;
14013;SDS011;49110;52.584;13.408;2023-06-19T02:44:33;8.87;;;8.17;;
14013;SDS011;49110;52.584;13.408;2023-06-19T02:45:33;11.73;;;8.80;;
14013;SDS011;49110;52.584;13.408;2023-06-19T02:46:34;9.50;;;8.70;;
14013;SDS011;49110;52.584;13.408;2023-06-19T02:47:34;10.53;;;9.63;;
14013;SDS011;49110;52.584;13.408;2023-06-19T02:48:35;9.40;;;8.70;;
14013;SDS011;49110;52.584;13.408;2023-06-19T02:49:35;10.10;;;9.13;;
14013;SDS011;49110;52.584;13.408;2023-06-19T02:50:35;9.60;;;8.80;;
14013;SDS011;49110;52.584;13.408;2023-06-19T02:51:36;9.37;;;8.57;;
14013;SDS011;49110;52.584;13.408;2023-06-19T02:52:36;10.03;;;9.23;;
14013;SDS011;49110;52.584;13.408;2023-06-19T02:53:37;9.77;;;9.07;;
14013;SDS011;49110;52.584;13.408;2023-06-19T02:54:37;9.80;;;8.80;;
14013;SDS011;49110;52.584;13.408;2023-06-19T02:55:38;9.43;;;8.63;;
14013;SDS011;49110;52.584;13.408;2023-06-19T02:56:38;9.57;;;8.73;;
14013;SDS011;49110;52.584;13.408;2023-06-19T02:57:39;9.93;;;9.13;;
14013;SDS011;49110;52.584;13.408;2023-06-19T02:58:39;10.03;;;9.23;;
14013;SDS011;49110;52.584;13.408;2023-06-19T02:59:40;9.70;;;8.90;;
14013;SDS011;49110;52.584;13.408;2023-06-19T03:00:40;10.53;;;8.67;;
14013;SDS011;49110;52.584;13.408;2023-06-19T03:01:41;10.07;;;9.27;;
14013;SDS011;49110;52.584;13.408;2023-06-19T03:02:41;9.50;;;8.73;;
14013;SDS011;49110;52.584;13.408;2023-06-19T03:03:43;9.37;;;8.57;;
14013;SDS011;49110;52.584;13.408;2023-06-19T03:04:46;10.27;;;9.43;;
14013;SDS011;49110;52.584;13.408;2023-06-19T03:05:46;11.00;;;9.23;;
14013;SDS011;49110;52.584;13.408;2023-06-19T03:06:47;9.07;;;8.30;;
14013;SDS011;49110;52.584;13.408;2023-06-19T03:07:47;10.60;;;9.70;;
14013;SDS011;49110;52.584;13.408;2023-06-19T03:08:48;10.50;;;9.50;;
14013;SDS011;49110;52.584;13.408;2023-06-19T03:09:48;9.57;;;8.77;;
14013;SDS011;49110;52.584;13.408;2023-06-19T03:10:49;9.97;;;8.87;;
14013;SDS011;49110;52.584;13.408;2023-06-19T03:11:49;10.33;;;9.33;;
14013;SDS011;49110;52.584;13.408;2023-06-19T03:12:50;9.83;;;8.93;;
14013;SDS011;49110;52.584;13.408;2023-06-19T03:13:51;9.27;;;8.53;;
14013;SDS011;49110;52.584;13.408;2023-06-19T03:14:52;10.27;;;9.27;;
14013;SDS011;49110;52.584;13.408;2023-06-19T03:15:53;10.00;;;9.10;;
14013;SDS011;49110;52.584;13.408;2023-06-19T03:16:53;9.40;;;8.50;;
14013;SDS011;49110;52.584;13.408;2023-06-19T03:17:53;10.10;;;9.30;;
14013;SDS011;49110;52.584;13.408;2023-06-19T03:18:54;10.23;;;9.30;;
14013;SDS011;49110;52.584;13.408;2023-06-19T03:19:54;9.93;;;8.93;;
14013;SDS011;49110;52.584;13.408;2023-06-19T03:20:55;10.00;;;9.00;;
14013;SDS011;49110;52.584;13.408;2023-06-19T03:21:55;9.57;;;8.73;;
14013;SDS011;49110;52.584;13.408;2023-06-19T03:22:56;10.53;;;9.07;;
14013;SDS011;49110;52.584;13.408;2023-06-19T03:23:56;9.60;;;8.80;;
14013;SDS011;49110;52.584;13.408;2023-06-19T03:24:57;10.20;;;9.33;;
14013;SDS011;49110;52.584;13.408;2023-06-19T03:25:57;10.27;;;9.43;;
14013;SDS011;49110;52.584;13.408;2023-06-19T03:26:58;10.13;;;9.23;;
14013;SDS011;49110;52.584;13.408;2023-06-19T03:27:58;10.20;;;9.40;;
14013;SDS011;49110;52.584;13.408;2023-06-19T03:28:59;10.00;;;9.00;;
14013;SDS011;49110;52.584;13.408;2023-06-19T03:29:59;9.70;;;8.80;;
14013;SDS011;49110;52.584;13.408;2023-06-19T03:31:00;10.30;;;9.33;;
14013;SDS011;49110;52.584;13.408;2023-06-19T03:32:00;10.27;;;9.37;;
14013;SDS011;49110;52.584;13.408;2023-06-19T03:33:01;10.37;;;9.37;;
14013;SDS011;49110;52.584;13.408;2023-06-19T03:34:01;9.13;;;8.43;;
14013;SDS011;49110;52.584;13.408;2023-06-19T03:35:02;10.53;;;9.53;;
14013;SDS011;49110;52.584;13.408;2023-06-19T03:36:05;9.73;;;8.93;;
14013;SDS011;49110;52.584;13.408;2023-06-19T03:37:06;10.00;;;9.10;;
14013;SDS011;49110;52.584;13.408;2023-06-19T03:38:06;10.63;;;9.53;;
14013;SDS011;49110;52.584;13.408;2023-06-19T03:39:07;9.30;;;8.50;;
14013;SDS011;49110;52.584;13.408;2023-06-19T03:40:07;10.13;;;9.33;;
14013;SDS011;49110;52.584;13.408;2023-06-19T03:41:13;10.23;;;9.30;;
14013;SDS011;49110;52.584;13.408;2023-06-19T03:42:13;10.37;;;9.40;;
14013;SDS011;49110;52.584;13.408;2023-06-19T03:43:14;10.27;;;9.37;;
14013;SDS011;49110;52.584;13.408;2023-06-19T03:44:14;9.37;;;8.47;;
14013;SDS011;49110;52.584;13.408;2023-06-19T03:45:15;10.27;;;9.40;;
14013;SDS011;49110;52.584;13.408;2023-06-19T03:46:15;10.43;;;9.40;;
14013;SDS011;49110;52.584;13.408;2023-06-19T03:47:16;10.20;;;9.20;;
14013;SDS011;49110;52.584;13.408;2023-06-19T03:48:17;9.63;;;8.83;;
14013;SDS011;49110;52.584;13.408;2023-06-19T03:49:17;9.60;;;8.80;;
14013;SDS011;49110;52.584;13.408;2023-06-19T03:50:18;10.13;;;9.30;;
14013;SDS011;49110;52.584;13.408;2023-06-19T03:51:19;9.97;;;8.97;;
14013;SDS011;49110;52.584;13.408;2023-06-19T03:52:19;9.93;;;8.87;;
14013;SDS011;49110;52.584;13.408;2023-06-19T03:53:20;11.67;;;9.20;;
14013;SDS011;49110;52.584;13.408;2023-06-19T03:54:20;10.10;;;9.10;;
14013;SDS011;49110;52.584;13.408;2023-06-19T03:55:21;9.63;;;8.80;;
14013;SDS011;49110;52.584;13.408;2023-06-19T03:56:21;10.37;;;9.43;;
14013;SDS011;49110;52.584;13.408;2023-06-19T03:57:22;9.70;;;8.70;;
14013;SDS011;49110;52.584;13.408;2023-06-19T03:58:22;10.27;;;9.47;;
14013;SDS011;49110;52.584;13.408;2023-06-19T03:59:23;9.87;;;8.97;;
14013;SDS011;49110;52.584;13.408;2023-06-19T04:00:23;10.30;;;9.30;;
14013;SDS011;49110;52.584;13.408;2023-06-19T04:01:24;9.70;;;8.87;;
14013;SDS011;49110;52.584;13.408;2023-06-19T04:02:24;9.80;;;8.90;;
14013;SDS011;49110;52.584;13.408;2023-06-19T04:03:25;9.80;;;8.90;;
14013;SDS011;49110;52.584;13.408;2023-06-19T04:04:26;10.03;;;9.03;;
14013;SDS011;49110;52.584;13.408;2023-06-19T04:05:26;9.93;;;9.13;;
14013;SDS011;49110;52.584;13.408;2023-06-19T04:06:27;10.03;;;9.23;;
14013;SDS011;49110;52.584;13.408;2023-06-19T04:07:27;9.80;;;8.90;;
14013;SDS011;49110;52.584;13.408;2023-06-19T04:08:28;9.60;;;8.80;;
14013;SDS011;49110;52.584;13.408;2023-06-19T04:09:28;9.67;;;8.87;;
14013;SDS011;49110;52.584;13.408;2023-06-19T04:10:29;10.10;;;9.13;;
14013;SDS011;49110;52.584;13.408;2023-06-19T04:11:29;10.03;;;9.23;;
14013;SDS011;49110;52.584;13.408;2023-06-19T04:12:30;10.03;;;9.17;;
14013;SDS011;49110;52.584;13.408;2023-06-19T04:13:30;9.33;;;8.60;;
14013;SDS011;49110;52.584;13.408;2023-06-19T04:14:31;10.00;;;9.00;;
14013;SDS011;49110;52.584;13.408;2023-06-19T04:15:32;10.00;;;9.10;;
14013;SDS011;49110;52.584;13.408;2023-06-19T04:16:34;9.80;;;9.00;;
14013;SDS011;49110;52.584;13.408;2023-06-19T04:17:35;9.20;;;8.50;;
14013;SDS011;49110;52.584;13.408;2023-06-19T04:18:36;10.07;;;9.10;;
14013;SDS011;49110;52.584;13.408;2023-06-19T04:19:36;9.67;;;8.70;;
14013;SDS011;49110;52.584;13.408;2023-06-19T04:20:37;9.73;;;8.80;;
14013;SDS011;49110;52.584;13.408;2023-06-19T04:21:37;9.83;;;9.03;;
14013;SDS011;49110;52.584;13.408;2023-06-19T04:22:38;9.37;;;8.57;;
14013;SDS011;49110;52.584;13.408;2023-06-19T04:23:39;10.67;;;9.17;;
14013;SDS011;49110;52.584;13.408;2023-06-19T04:24:40;9.90;;;9.10;;
14013;SDS011;49110;52.584;13.408;2023-06-19T04:25:40;10.20;;;9.30;;
14013;SDS011;49110;52.584;13.408;2023-06-19T04:26:40;9.57;;;8.77;;
14013;SDS011;49110;52.584;13.408;2023-06-19T04:27:42;10.03;;;9.00;;
14013;SDS011;49110;52.584;13.408;2023-06-19T04:28:44;10.40;;;9.47;;
14013;SDS011;49110;52.584;13.408;2023-06-19T04:29:45;10.10;;;9.23;;
14013;SDS011;49110;52.584;13.408;2023-06-19T04:30:45;10.70;;;9.27;;
14013;SDS011;49110;52.584;13.408;2023-06-19T04:31:46;10.67;;;9.57;;
14013;SDS011;49110;52.584;13.408;2023-06-19T04:32:47;9.93;;;9.03;;
14013;SDS011;49110;52.584;13.408;2023-06-19T04:33:47;9.77;;;8.87;;
14013;SDS011;49110;52.584;13.408;2023-06-19T04:34:48;9.90;;;9.10;;
14013;SDS011;49110;52.584;13.408;2023-06-19T04:35:49;10.60;;;9.53;;
14013;SDS011;49110;52.584;13.408;2023-06-19T04:36:50;10.30;;;9.30;;
14013;SDS011;49110;52.584;13.408;2023-06-19T04:37:50;9.33;;;8.53;;
14013;SDS011;49110;52.584;13.408;2023-06-19T04:38:51;9.80;;;8.90;;
14013;SDS011;49110;52.584;13.408;2023-06-19T04:39:52;10.00;;;9.20;;
14013;SDS011;49110;52.584;13.408;2023-06-19T04:40:52;9.70;;;8.90;;
14013;SDS011;49110;52.584;13.408;2023-06-19T04:41:53;10.27;;;9.23;;
14013;SDS011;49110;52.584;13.408;2023-06-19T04:42:53;10.30;;;9.37;;
14013;SDS011;49110;52.584;13.408;2023-06-19T04:43:54;10.67;;;9.57;;
14013;SDS011;49110;52.584;13.408;2023-06-19T04:44:54;9.90;;;9.10;;
14013;SDS011;49110;52.584;13.408;2023-06-19T04:45:56;10.80;;;9.90;;
14013;SDS011;49110;52.584;13.408;2023-06-19T04:46:56;10.13;;;9.23;;
14013;SDS011;49110;52.584;13.408;2023-06-19T04:48:01;10.30;;;9.40;;
14013;SDS011;49110;52.584;13.408;2023-06-19T04:49:03;11.70;;;10.80;;
14013;SDS011;49110;52.584;13.408;2023-06-19T04:50:04;11.00;;;10.10;;
14013;SDS011;49110;52.584;13.408;2023-06-19T04:51:05;13.97;;;10.17;;
14013;SDS011;49110;52.584;13.408;2023-06-19T04:52:06;10.87;;;9.97;;
14013;SDS011;49110;52.584;13.408;2023-06-19T04:53:06;10.17;;;9.30;;
14013;SDS011;49110;52.584;13.408;2023-06-19T04:54:07;10.43;;;9.33;;
14013;SDS011;49110;52.584;13.408;2023-06-19T04:55:07;11.57;;;10.20;;
14013;SDS011;49110;52.584;13.408;2023-06-19T04:56:11;11.27;;;10.33;;
14013;SDS011;49110;52.584;13.408;2023-06-19T04:57:11;10.37;;;9.30;;
14013;SDS011;49110;52.584;13.408;2023-06-19T04:58:12;11.33;;;10.20;;
14013;SDS011;49110;52.584;13.408;2023-06-19T04:59:12;10.70;;;9.50;;
14013;SDS011;49110;52.584;13.408;2023-06-19T05:00:18;10.43;;;9.53;;
14013;SDS011;49110;52.584;13.408;2023-06-19T05:01:23;10.80;;;9.80;;
14013;SDS011;49110;52.584;13.408;2023-06-19T05:02:27;10.63;;;9.63;;
14013;SDS011;49110;52.584;13.408;2023-06-19T05:03:28;10.67;;;9.67;;
14013;SDS011;49110;52.584;13.408;2023-06-19T05:04:28;11.03;;;9.30;;
14013;SDS011;49110;52.584;13.408;2023-06-19T05:05:32;10.30;;;9.30;;
14013;SDS011;49110;52.584;13.408;2023-06-19T05:06:33;10.60;;;9.50;;
14013;SDS011;49110;52.584;13.408;2023-06-19T05:07:33;10.53;;;9.73;;
14013;SDS011;49110;52.584;13.408;2023-06-19T05:08:34;10.00;;;9.10;;
14013;SDS011;49110;52.584;13.408;2023-06-19T05:09:34;10.57;;;9.53;;
14013;SDS011;49110;52.584;13.408;2023-06-19T05:10:35;11.17;;;9.63;;
14013;SDS011;49110;52.584;13.408;2023-06-19T05:11:35;9.60;;;8.73;;
14013;SDS011;49110;52.584;13.408;2023-06-19T05:12:36;10.03;;;9.07;;
14013;SDS011;49110;52.584;13.408;2023-06-19T05:13:37;11.00;;;9.43;;
14013;SDS011;49110;52.584;13.408;2023-06-19T05:14:37;10.63;;;9.70;;
14013;SDS011;49110;52.584;13.408;2023-06-19T05:15:38;11.33;;;10.30;;
14013;SDS011;49110;52.584;13.408;2023-06-19T05:16:38;11.27;;;9.80;;
14013;SDS011;49110;52.584;13.408;2023-06-19T05:17:39;11.07;;;10.07;;
14013;SDS011;49110;52.584;13.408;2023-06-19T05:18:39;10.27;;;9.37;;
14013;SDS011;49110;52.584;13.408;2023-06-19T05:19:40;10.43;;;9.53;;
14013;SDS011;49110;52.584;13.408;2023-06-19T05:20:40;10.67;;;9.77;;
14013;SDS011;49110;52.584;13.408;2023-06-19T05:21:41;10.30;;;9.37;;
14013;SDS011;49110;52.584;13.408;2023-06-19T05:22:41;10.47;;;9.57;;
14013;SDS011;49110;52.584;13.408;2023-06-19T05:23:42;10.60;;;9.63;;
14013;SDS011;49110;52.584;13.408;2023-06-19T05:24:42;11.00;;;10.00;;
14013;SDS011;49110;52.584;13.408;2023-06-19T05:25:43;10.13;;;9.13;;
14013;SDS011;49110;52.584;13.408;2023-06-19T05:26:43;10.37;;;9.43;;
14013;SDS011;49110;52.584;13.408;2023-06-19T05:27:44;11.17;;;10.10;;
14013;SDS011;49110;52.584;13.408;2023-06-19T05:28:44;10.27;;;9.27;;
14013;SDS011;49110;52.584;13.408;2023-06-19T05:29:45;10.07;;;9.20;;
14013;SDS011;49110;52.584;13.408;2023-06-19T05:30:45;10.13;;;9.23;;
14013;SDS011;49110;52.584;13.408;2023-06-19T05:31:46;11.20;;;10.03;;
14013;SDS011;49110;52.584;13.408;2023-06-19T05:32:46;11.43;;;9.53;;
14013;SDS011;49110;52.584;13.408;2023-06-19T05:33:49;10.77;;;9.63;;
14013;SDS011;49110;52.584;13.408;2023-06-19T05:34:50;10.37;;;9.47;;
14013;SDS011;49110;52.584;13.408;2023-06-19T05:35:50;10.77;;;9.77;;
14013;SDS011;49110;52.584;13.408;2023-06-19T05:36:53;10.27;;;9.37;;
14013;SDS011;49110;52.584;13.408;2023-06-19T05:37:54;11.00;;;9.90;;
14013;SDS011;49110;52.584;13.408;2023-06-19T05:38:54;10.17;;;8.97;;
14013;SDS011;49110;52.584;13.408;2023-06-19T05:39:55;10.50;;;9.53;;
14013;SDS011;49110;52.584;13.408;2023-06-19T05:40:56;11.27;;;10.17;;
14013;SDS011;49110;52.584;13.408;2023-06-19T05:41:56;13.37;;;10.50;;
14013;SDS011;49110;52.584;13.408;2023-06-19T05:42:57;13.87;;;12.50;;
14013;SDS011;49110;52.584;13.408;2023-06-19T05:43:57;11.90;;;10.83;;
14013;SDS011;49110;52.584;13.408;2023-06-19T05:44:58;11.83;;;10.47;;
14013;SDS011;49110;52.584;13.408;2023-06-19T05:45:58;11.97;;;10.53;;
14013;SDS011;49110;52.584;13.408;2023-06-19T05:46:59;9.67;;;8.87;;
14013;SDS011;49110;52.584;13.408;2023-06-19T05:47:59;10.90;;;10.00;;
14013;SDS011;49110;52.584;13.408;2023-06-19T05:49:00;11.70;;;10.43;;
14013;SDS011;49110;52.584;13.408;2023-06-19T05:50:00;11.23;;;10.10;;
14013;SDS011;49110;52.584;13.408;2023-06-19T05:51:01;11.27;;;10.17;;
14013;SDS011;49110;52.584;13.408;2023-06-19T05:52:01;11.20;;;10.20;;
14013;SDS011;49110;52.584;13.408;2023-06-19T05:53:02;10.40;;;9.40;;
14013;SDS011;49110;52.584;13.408;2023-06-19T05:54:02;10.20;;;9.20;;
14013;SDS011;49110;52.584;13.408;2023-06-19T05:55:03;11.07;;;10.07;;
14013;SDS011;49110;52.584;13.408;2023-06-19T05:56:04;10.33;;;9.43;;
14013;SDS011;49110;52.584;13.408;2023-06-19T05:57:05;10.33;;;9.43;;
14013;SDS011;49110;52.584;13.408;2023-06-19T05:58:06;10.90;;;10.00;;
14013;SDS011;49110;52.584;13.408;2023-06-19T05:59:07;10.93;;;9.93;;
14013;SDS011;49110;52.584;13.408;2023-06-19T06:00:07;11.50;;;10.03;;
14013;SDS011;49110;52.584;13.408;2023-06-19T06:01:13;10.30;;;9.40;;